Time;durP1;ratioP1;P1;durP2;ratioP2;P2;SDS_P1;SDS_P2;PMS_P1;PMS_P2;Temp;Humidity;BMP_temperature;BMP_pressure;BME280_temperature;BME280_humidity;BME280_pressure;Samples;Min_cycle;Max_cycle;Signal;HPM_P1;HPM_P2
2021/03/03 00:01:16;;;;;;;143.07;48.60;;;1.10;99.90;;;;;;4464269;28;659353;-65
2021/03/03 00:04:04;;;;;;;154.20;50.00;;;1.10;99.90;;;;;;4437766;28;659949;-65
2021/03/03 00:06:51;;;;;;;134.07;48.10;;;1.10;99.90;;;;;;4457888;28;658639;-64
2021/03/03 00:09:38;;;;;;;142.53;46.70;;;1.00;99.90;;;;;;4431748;28;660477;-64
2021/03/03 00:12:25;;;;;;;147.43;48.50;;;1.00;99.90;;;;;;4462960;28;658620;-64
2021/03/03 00:15:13;;;;;;;142.20;49.30;;;0.90;99.90;;;;;;4443568;28;660758;-64
2021/03/03 00:18:00;;;;;;;148.98;49.55;;;0.90;99.90;;;;;;4450788;28;660392;-64
2021/03/03 00:20:48;;;;;;;148.33;48.67;;;0.80;99.90;;;;;;4428130;28;660412;-63
2021/03/03 00:23:35;;;;;;;147.40;49.20;;;0.70;99.90;;;;;;4465667;28;660382;-65
2021/03/03 00:26:22;;;;;;;149.90;49.70;;;0.60;99.90;;;;;;4446072;28;658529;-62
2021/03/03 00:29:09;;;;;;;146.27;48.95;;;0.60;99.90;;;;;;4453103;28;658523;-64
2021/03/03 00:31:56;;;;;;;146.27;50.73;;;0.50;99.90;;;;;;4465256;28;658549;-64
2021/03/03 00:34:43;;;;;;;144.37;51.00;;;0.50;99.90;;;;;;4446967;28;658560;-64
2021/03/03 00:37:31;;;;;;;148.43;47.63;;;0.40;99.90;;;;;;4465267;28;660313;-65
2021/03/03 00:40:18;;;;;;;164.10;52.93;;;0.40;99.90;;;;;;4438766;28;658809;-65
2021/03/03 00:43:05;;;;;;;172.27;57.50;;;0.40;99.90;;;;;;4451873;28;659334;-65
2021/03/03 00:45:52;;;;;;;172.10;55.10;;;0.40;99.90;;;;;;4426573;28;658485;-63
2021/03/03 00:48:39;;;;;;;158.93;56.07;;;0.40;99.90;;;;;;4467621;28;658658;-65
2021/03/03 00:51:26;;;;;;;147.18;51.33;;;0.30;99.90;;;;;;4459226;28;658918;-65
2021/03/03 00:54:14;;;;;;;148.43;51.95;;;0.30;99.90;;;;;;4444901;28;658996;-64
2021/03/03 00:57:01;;;;;;;150.87;50.63;;;0.30;99.90;;;;;;4463012;28;659037;-65
2021/03/03 00:59:48;;;;;;;149.63;47.23;;;0.20;99.90;;;;;;4442623;28;658740;-65
2021/03/03 01:02:35;;;;;;;153.60;49.90;;;0.20;99.90;;;;;;4461128;28;659478;-65
2021/03/03 01:05:23;;;;;;;136.13;48.53;;;0.20;99.90;;;;;;4439310;28;659848;-62
2021/03/03 01:08:10;;;;;;;140.93;48.90;;;0.20;99.90;;;;;;4457283;28;660208;-65
2021/03/03 01:10:58;;;;;;;134.13;47.60;;;0.10;99.90;;;;;;4429733;28;658353;-63
2021/03/03 01:13:45;;;;;;;143.03;47.77;;;0.10;99.90;;;;;;4458082;28;660236;-65
2021/03/03 01:16:32;;;;;;;146.05;48.58;;;0.00;99.90;;;;;;4437873;28;658793;-63
2021/03/03 01:19:19;;;;;;;133.57;49.50;;;0.00;99.90;;;;;;4451408;28;658177;-66
2021/03/03 01:22:06;;;;;;;143.10;49.77;;;-0.10;99.90;;;;;;4446865;28;658956;-65
2021/03/03 01:24:53;;;;;;;138.90;49.40;;;-0.10;99.90;;;;;;4441291;28;660591;-65
2021/03/03 01:27:41;;;;;;;143.10;48.78;;;-0.10;99.90;;;;;;4461309;28;661386;-65
2021/03/03 01:30:28;;;;;;;145.23;48.70;;;-0.10;99.90;;;;;;4422481;28;659770;-65
2021/03/03 01:33:26;;;;;;;154.57;51.87;;;-0.20;99.90;;;;;;4450410;28;661378;-65
2021/03/03 01:36:12;;;;;;;157.40;54.10;;;-0.30;99.90;;;;;;4415358;28;659562;-64
2021/03/03 01:38:59;;;;;;;157.73;54.40;;;-0.30;99.90;;;;;;4462301;28;661574;-64
2021/03/03 01:41:46;;;;;;;162.60;56.70;;;-0.20;99.90;;;;;;4460904;28;660663;-65
2021/03/03 01:44:34;;;;;;;157.33;56.07;;;-0.30;99.90;;;;;;4432203;28;659443;-65
2021/03/03 01:47:21;;;;;;;163.57;55.40;;;-0.30;99.90;;;;;;4457144;28;660049;-65
2021/03/03 01:50:09;;;;;;;176.23;60.00;;;-0.30;99.90;;;;;;4443231;28;659817;-64
2021/03/03 01:52:56;;;;;;;173.83;57.03;;;-0.40;99.90;;;;;;4461648;28;660521;-65
2021/03/03 01:55:43;;;;;;;180.27;60.63;;;-0.30;99.90;;;;;;4431163;28;660399;-65
2021/03/03 01:58:30;;;;;;;182.60;60.47;;;-0.30;99.90;;;;;;4444749;28;660863;-65
2021/03/03 02:01:20;;;;;;;167.23;58.73;;;-0.30;99.90;;;;;;4435526;28;660288;-63
2021/03/03 02:04:07;;;;;;;186.33;60.73;;;-0.30;99.90;;;;;;4464904;28;659920;-64
2021/03/03 02:06:57;;;;;;;165.37;58.70;;;-0.40;99.90;;;;;;4470023;28;660775;-65
2021/03/03 02:09:49;;;;;;;165.23;58.77;;;-0.40;99.90;;;;;;4430979;28;660833;-65
2021/03/03 02:12:38;;;;;;;172.57;57.40;;;-0.50;99.90;;;;;;4420709;28;659878;-65
2021/03/03 02:15:25;;;;;;;174.53;58.23;;;-0.50;99.90;;;;;;4439306;28;661168;-65
2021/03/03 02:18:13;;;;;;;168.30;57.63;;;-0.50;99.90;;;;;;4434008;28;660413;-63
2021/03/03 02:21:02;;;;;;;165.53;56.80;;;-0.50;99.90;;;;;;4429487;28;661172;-65
2021/03/03 02:23:51;;;;;;;171.40;55.87;;;-0.60;99.90;;;;;;4421544;28;661609;-63
2021/03/03 02:26:39;;;;;;;163.27;54.73;;;-0.60;99.90;;;;;;4419854;28;659844;-65
2021/03/03 02:29:27;;;;;;;151.50;52.90;;;-0.60;99.90;;;;;;4440130;28;660895;-65
2021/03/03 02:32:14;;;;;;;147.47;51.43;;;-0.60;99.90;;;;;;4430058;28;661206;-65
2021/03/03 02:35:01;;;;;;;146.17;49.40;;;-0.70;99.90;;;;;;4458719;28;659470;-65
2021/03/03 02:37:48;;;;;;;142.57;49.17;;;-0.70;99.90;;;;;;4426058;28;660953;-65
2021/03/03 02:40:35;;;;;;;152.23;49.70;;;-0.70;99.90;;;;;;4457902;28;661547;-65
2021/03/03 02:43:23;;;;;;;152.18;49.60;;;-0.70;99.90;;;;;;4446362;28;659728;-64
2021/03/03 02:46:10;;;;;;;144.13;47.17;;;-0.70;99.90;;;;;;4465430;28;661518;-65
2021/03/03 02:48:57;;;;;;;143.20;48.70;;;-0.70;99.90;;;;;;4429258;28;659545;-64
2021/03/03 02:51:44;;;;;;;157.40;49.38;;;-0.80;99.90;;;;;;4455939;28;661160;-65
2021/03/03 02:54:31;;;;;;;150.27;49.15;;;-0.80;99.90;;;;;;4447560;28;660660;-65
2021/03/03 02:57:18;;;;;;;139.27;46.07;;;-0.80;99.90;;;;;;4428695;28;660165;-66
2021/03/03 03:00:08;;;;;;;139.00;46.65;;;-0.80;99.90;;;;;;4458100;28;661545;-65
2021/03/03 03:03:00;;;;;;;146.57;47.60;;;-0.90;99.90;;;;;;4441778;28;660875;-65
2021/03/03 03:05:52;;;;;;;137.37;46.10;;;-0.90;99.90;;;;;;4422291;28;659768;-63
2021/03/03 03:08:39;;;;;;;137.87;45.03;;;-0.90;99.90;;;;;;4434748;28;661726;-65
2021/03/03 03:11:27;;;;;;;123.50;44.33;;;-1.00;99.90;;;;;;4464821;28;660346;-65
2021/03/03 03:14:15;;;;;;;125.17;43.97;;;-1.00;99.90;;;;;;4432745;28;661202;-64
2021/03/03 03:17:03;;;;;;;134.60;43.83;;;-1.00;99.90;;;;;;4456995;28;659521;-63
2021/03/03 03:19:51;;;;;;;133.57;42.80;;;-1.00;99.90;;;;;;4454682;28;661637;-65
2021/03/03 03:22:38;;;;;;;134.13;42.63;;;-1.00;99.90;;;;;;4445449;28;660059;-64
2021/03/03 03:25:25;;;;;;;131.20;42.20;;;-1.00;99.90;;;;;;4468612;28;660656;-65
2021/03/03 03:28:11;;;;;;;127.23;41.53;;;-1.00;99.90;;;;;;4449898;28;660523;-64
2021/03/03 03:30:58;;;;;;;131.00;43.47;;;-1.00;99.90;;;;;;4431644;28;660762;-64
2021/03/03 03:33:46;;;;;;;125.13;40.57;;;-1.00;99.90;;;;;;4446726;28;660309;-64
2021/03/03 03:36:33;;;;;;;112.03;38.37;;;-1.00;99.90;;;;;;4439775;28;659980;-64
2021/03/03 03:39:20;;;;;;;120.90;39.30;;;-1.00;99.90;;;;;;4463059;28;662070;-64
2021/03/03 03:42:08;;;;;;;115.82;39.30;;;-1.00;99.90;;;;;;4440064;28;659722;-63
2021/03/03 03:44:55;;;;;;;116.20;38.13;;;-1.10;99.90;;;;;;4463629;28;661434;-64
2021/03/03 03:47:42;;;;;;;113.13;39.23;;;-1.00;99.90;;;;;;4439610;28;659931;-62
2021/03/03 03:50:30;;;;;;;120.90;39.37;;;-1.00;99.90;;;;;;4468309;28;660879;-64
2021/03/03 03:53:17;;;;;;;118.35;39.50;;;-1.00;99.90;;;;;;4443885;28;660576;-62
2021/03/03 03:56:06;;;;;;;120.07;38.23;;;-1.10;99.90;;;;;;4451112;28;661818;-64
2021/03/03 03:58:54;;;;;;;113.97;39.10;;;-1.10;99.90;;;;;;4443073;28;659872;-64
2021/03/03 04:01:40;;;;;;;117.43;37.90;;;-1.10;99.90;;;;;;4463790;28;660280;-64
2021/03/03 04:04:27;;;;;;;113.33;37.90;;;-1.20;99.90;;;;;;4443245;28;660574;-64
2021/03/03 04:07:15;;;;;;;121.93;38.40;;;-1.20;99.90;;;;;;4462337;28;661073;-65
2021/03/03 04:10:03;;;;;;;107.57;36.60;;;-1.20;99.90;;;;;;4443476;28;660308;-64
2021/03/03 04:12:50;;;;;;;119.63;37.87;;;-1.20;99.90;;;;;;4467066;28;659751;-65
2021/03/03 04:15:37;;;;;;;116.40;37.90;;;-1.20;99.90;;;;;;4445531;28;659424;-62
2021/03/03 04:18:24;;;;;;;113.80;37.97;;;-1.20;99.90;;;;;;4466775;28;660293;-65
2021/03/03 04:21:11;;;;;;;120.07;38.80;;;-1.20;99.90;;;;;;4463269;28;660020;-64
2021/03/03 04:23:59;;;;;;;105.90;36.43;;;-1.30;99.90;;;;;;4444550;28;659549;-64
2021/03/03 04:26:46;;;;;;;108.70;38.30;;;-1.30;99.90;;;;;;4453817;28;661832;-65
2021/03/03 04:29:33;;;;;;;106.10;36.90;;;-1.30;99.90;;;;;;4443686;28;659687;-64
2021/03/03 04:32:20;;;;;;;117.70;38.43;;;-1.30;99.90;;;;;;4459386;28;660358;-65
2021/03/03 04:35:08;;;;;;;116.60;37.73;;;-1.30;99.90;;;;;;4450453;28;660315;-62
2021/03/03 04:37:55;;;;;;;123.38;38.67;;;-1.30;99.90;;;;;;4462465;28;661347;-65
2021/03/03 04:40:43;;;;;;;115.50;38.97;;;-1.20;99.90;;;;;;4440353;28;660066;-64
2021/03/03 04:43:30;;;;;;;146.15;38.55;;;-1.30;99.90;;;;;;4448370;28;661717;-64
2021/03/03 04:46:17;;;;;;;109.13;35.90;;;-1.30;99.90;;;;;;4436238;28;659416;-63
2021/03/03 04:49:04;;;;;;;115.78;37.17;;;-1.30;99.90;;;;;;4460857;28;659711;-65
2021/03/03 04:51:51;;;;;;;104.38;35.97;;;-1.20;99.90;;;;;;4461777;28;660137;-65
2021/03/03 04:54:38;;;;;;;106.47;36.75;;;-1.20;99.90;;;;;;4443820;28;659432;-64
2021/03/03 04:57:26;;;;;;;106.23;33.50;;;-1.20;99.90;;;;;;4466283;28;661375;-65
2021/03/03 05:00:14;;;;;;;99.70;34.13;;;-1.20;99.90;;;;;;4436518;28;660952;-65
2021/03/03 05:03:01;;;;;;;101.07;35.20;;;-1.20;99.90;;;;;;4461947;28;658556;-64
2021/03/03 05:05:48;;;;;;;107.50;35.07;;;-1.20;99.90;;;;;;4435137;28;660151;-64
2021/03/03 05:08:35;;;;;;;95.03;33.50;;;-1.20;99.90;;;;;;4461277;28;660136;-65
2021/03/03 05:11:22;;;;;;;94.40;32.87;;;-1.20;99.90;;;;;;4442258;28;658476;-62
2021/03/03 05:14:10;;;;;;;96.60;30.87;;;-1.20;99.90;;;;;;4469002;28;658903;-65
2021/03/03 05:16:57;;;;;;;101.07;33.00;;;-1.20;99.90;;;;;;4439062;28;659457;-63
2021/03/03 05:19:44;;;;;;;90.93;31.90;;;-1.20;99.90;;;;;;4466971;28;660206;-64
2021/03/03 05:22:31;;;;;;;92.77;31.07;;;-1.10;99.90;;;;;;4457653;28;658585;-65
2021/03/03 05:25:18;;;;;;;87.73;30.93;;;-1.10;99.90;;;;;;4441782;28;658453;-64
2021/03/03 05:28:06;;;;;;;89.80;30.57;;;-1.10;99.90;;;;;;4455490;28;659418;-65
2021/03/03 05:30:54;;;;;;;86.00;29.33;;;-1.10;99.90;;;;;;4443797;28;658709;-65
2021/03/03 05:33:42;;;;;;;81.77;28.80;;;-1.00;99.90;;;;;;4462142;28;658552;-62
2021/03/03 05:36:29;;;;;;;81.67;28.47;;;-0.90;99.90;;;;;;4439664;28;659525;-64
2021/03/03 05:39:16;;;;;;;81.13;28.43;;;-0.90;99.90;;;;;;4463493;28;659580;-65
2021/03/03 05:42:03;;;;;;;78.87;27.70;;;-0.90;99.90;;;;;;4436154;28;658358;-63
2021/03/03 05:44:50;;;;;;;122.10;35.73;;;-0.90;99.90;;;;;;4464507;28;659113;-64
2021/03/03 05:47:38;;;;;;;475.33;106.32;;;-0.90;99.90;;;;;;4449397;28;660934;-65
2021/03/03 05:50:25;;;;;;;275.90;64.07;;;-0.80;99.90;;;;;;4454072;28;661869;-66
2021/03/03 05:53:13;;;;;;;179.53;47.73;;;-0.70;99.90;;;;;;4442708;28;659591;-63
2021/03/03 05:56:01;;;;;;;165.33;42.67;;;-0.70;99.90;;;;;;4460806;28;659798;-65
2021/03/03 05:58:48;;;;;;;110.53;35.30;;;-0.60;99.90;;;;;;4432491;28;660066;-64
2021/03/03 06:01:35;;;;;;;185.35;47.72;;;-0.50;99.90;;;;;;4449933;28;660046;-65
2021/03/03 06:04:23;;;;;;;134.17;37.67;;;-0.50;99.90;;;;;;4446591;28;659445;-63
2021/03/03 06:07:11;;;;;;;143.10;40.27;;;-0.40;99.90;;;;;;4462682;28;661398;-65
2021/03/03 06:09:58;;;;;;;103.47;33.30;;;-0.30;99.90;;;;;;4431894;28;660011;-65
2021/03/03 06:12:45;;;;;;;89.43;29.37;;;-0.20;99.90;;;;;;4462543;28;661243;-65
2021/03/03 06:15:32;;;;;;;79.18;27.92;;;-0.10;99.90;;;;;;4443680;28;658245;-63
2021/03/03 06:18:20;;;;;;;69.40;28.20;;;0.00;99.90;;;;;;4467467;28;658536;-65
2021/03/03 06:21:26;;;;;;;80.00;28.47;;;0.20;99.90;;;;;;4451889;28;658018;-63
2021/03/03 06:24:13;;;;;;;77.60;28.27;;;0.30;99.90;;;;;;4415990;28;659564;-65
2021/03/03 06:27:02;;;;;;;74.90;27.47;;;0.40;99.90;;;;;;4461784;28;658269;-65
2021/03/03 06:30:01;;;;;;;84.40;28.63;;;0.60;99.90;;;;;;4441711;28;658958;-65
2021/03/03 06:32:56;;;;;;;79.10;28.33;;;0.70;99.90;;;;;;4414977;28;658058;-65
2021/03/03 06:35:44;;;;;;;81.93;29.60;;;0.90;99.90;;;;;;4412418;28;658842;-65
2021/03/03 06:38:32;;;;;;;96.97;31.03;;;1.10;99.90;;;;;;4463901;28;658354;-65
2021/03/03 06:41:20;;;;;;;82.20;30.10;;;1.20;99.90;;;;;;4437989;28;657892;-65
2021/03/03 06:44:07;;;;;;;72.53;27.70;;;1.50;99.90;;;;;;4458113;28;657539;-66
2021/03/03 06:47:04;;;;;;;73.70;27.03;;;1.70;99.90;;;;;;4435322;28;659235;-66
2021/03/03 06:49:52;;;;;;;77.20;27.90;;;1.80;99.90;;;;;;4438232;28;658777;-67
2021/03/03 06:52:40;;;;;;;77.07;28.07;;;2.20;99.90;;;;;;4447749;28;658638;-66
2021/03/03 06:55:46;;;;;;;69.50;26.03;;;2.40;99.90;;;;;;4458380;28;657636;-65
2021/03/03 06:58:33;;;;;;;71.87;27.87;;;2.60;99.90;;;;;;4393309;28;659945;-67
2021/03/03 07:01:33;;;;;;;64.00;26.35;;;2.90;99.90;;;;;;4445299;28;659308;-65
2021/03/03 07:04:24;;;;;;;73.87;26.90;;;3.10;99.90;;;;;;4401055;28;659986;-66
2021/03/03 07:07:12;;;;;;;58.57;22.90;;;3.40;99.90;;;;;;4435956;28;657742;-66
2021/03/03 07:09:59;;;;;;;50.60;21.23;;;3.70;99.90;;;;;;4443501;28;659281;-67
2021/03/03 07:12:49;;;;;;;47.93;19.03;;;4.00;99.90;;;;;;4458621;28;657273;-66
2021/03/03 07:15:36;;;;;;;42.53;17.70;;;4.30;99.90;;;;;;4426318;28;658072;-67
2021/03/03 07:18:33;;;;;;;36.10;12.50;;;4.90;99.90;;;;;;4418870;28;659011;-66
2021/03/03 07:21:35;;;;;;;38.90;14.93;;;5.40;99.90;;;;;;4425319;28;658499;-65
2021/03/03 07:24:22;;;;;;;37.10;13.40;;;6.00;99.90;;;;;;4413578;28;658198;-63
2021/03/03 07:27:09;;;;;;;34.73;14.40;;;6.30;99.90;;;;;;4454416;28;658680;-66
2021/03/03 07:29:58;;;;;;;39.57;14.53;;;6.70;99.90;;;;;;4449490;28;658402;-65
2021/03/03 07:32:45;;;;;;;37.33;14.27;;;7.00;99.90;;;;;;4442832;28;659410;-66
2021/03/03 07:35:32;;;;;;;35.80;13.17;;;7.20;99.90;;;;;;4434868;28;658890;-63
2021/03/03 07:38:19;;;;;;;37.37;15.63;;;7.40;99.90;;;;;;4459130;28;659036;-66
2021/03/03 07:41:12;;;;;;;31.85;13.45;;;7.40;99.90;;;;;;4459306;28;658256;-66
2021/03/03 07:43:59;;;;;;;37.33;13.37;;;7.60;99.90;;;;;;4392259;28;658117;-67
2021/03/03 07:46:48;;;;;;;33.50;13.50;;;7.70;99.90;;;;;;4455146;28;658001;-66
2021/03/03 07:49:35;;;;;;;31.10;12.97;;;7.80;96.80;;;;;;4445975;28;658786;-66
2021/03/03 07:52:22;;;;;;;33.88;13.90;;;7.90;97.90;;;;;;4427534;28;657618;-63
2021/03/03 07:55:10;;;;;;;31.80;13.67;;;8.10;96.60;;;;;;4459462;28;657904;-66
2021/03/03 07:57:59;;;;;;;32.13;12.77;;;8.20;95.20;;;;;;4442713;28;657602;-64
2021/03/03 08:00:46;;;;;;;32.53;14.27;;;8.40;95.80;;;;;;4460176;28;658638;-66
2021/03/03 08:03:42;;;;;;;23.47;9.40;;;8.60;93.60;;;;;;4444699;27;658733;-66
2021/03/03 08:06:34;;;;;;;32.83;13.97;;;8.70;93.80;;;;;;4419353;28;658145;-65
2021/03/03 08:09:23;;;;;;;33.30;15.20;;;8.80;93.20;;;;;;4434248;28;658429;-66
2021/03/03 08:12:10;;;;;;;35.60;14.50;;;9.00;91.80;;;;;;4430918;28;658675;-66
2021/03/03 08:14:57;;;;;;;26.60;12.37;;;9.20;91.50;;;;;;4449894;28;657667;-63
2021/03/03 08:17:44;;;;;;;24.03;10.60;;;9.40;89.50;;;;;;4456520;28;658183;-65
2021/03/03 08:20:32;;;;;;;26.43;10.93;;;9.40;90.90;;;;;;4454309;28;658082;-65
2021/03/03 08:23:44;;;;;;;32.57;13.80;;;9.60;89.10;;;;;;4443288;28;659129;-65
2021/03/03 08:26:38;;;;;;;27.92;12.38;;;9.80;87.60;;;;;;4431322;28;659040;-64
2021/03/03 08:29:28;;;;;;;16.77;6.10;;;9.90;84.70;;;;;;4425936;28;657848;-64
2021/03/03 08:32:22;;;;;;;23.10;9.77;;;10.00;83.10;;;;;;4430461;28;658234;-64
2021/03/03 08:35:09;;;;;;;26.30;10.95;;;10.00;79.70;;;;;;4428019;28;657542;-65
2021/03/03 08:38:15;;;;;;;19.27;7.90;;;10.00;81.40;;;;;;4455049;28;659118;-65
2021/03/03 08:41:32;;;;;;;26.70;10.30;;;10.20;78.70;;;;;;4417096;28;658988;-64
2021/03/03 08:44:19;;;;;;;22.30;10.63;;;10.40;79.10;;;;;;4396110;28;660195;-65
2021/03/03 08:47:06;;;;;;;27.07;11.53;;;10.50;77.90;;;;;;4452103;28;659963;-64
2021/03/03 08:49:53;;;;;;;24.93;11.50;;;10.60;77.60;;;;;;4424216;28;658919;-63
2021/03/03 08:52:40;;;;;;;20.43;7.80;;;10.80;74.70;;;;;;4450794;28;659756;-64
2021/03/03 08:55:30;;;;;;;29.60;12.13;;;10.80;73.40;;;;;;4458043;28;658215;-63
2021/03/03 08:59:00;;;;;;;17.67;7.37;;;10.80;74.70;;;;;;4439223;28;659170;-63
2021/03/03 09:02:01;;;;;;;31.87;13.67;;;10.90;72.80;;;;;;4432538;28;657798;-66
2021/03/03 09:04:49;;;;;;;29.23;11.73;;;10.80;73.30;;;;;;4400348;28;660856;-66
2021/03/03 09:07:36;;;;;;;24.17;8.77;;;10.90;72.80;;;;;;4440687;28;658425;-64
2021/03/03 09:10:23;;;;;;;34.83;14.60;;;10.80;73.40;;;;;;4424698;28;657624;-64
2021/03/03 09:13:20;;;;;;;41.47;16.27;;;10.90;73.80;;;;;;4440678;28;660428;-63
2021/03/03 09:16:08;;;;;;;49.67;17.27;;;11.20;72.90;;;;;;4394777;28;658719;-63
2021/03/03 09:19:08;;;;;;;42.00;19.47;;;11.70;73.80;;;;;;4444634;28;659682;-65
2021/03/03 09:21:55;;;;;;;42.47;18.53;;;11.80;71.10;;;;;;4415748;28;659900;-66
2021/03/03 09:24:43;;;;;;;42.53;18.07;;;12.10;70.20;;;;;;4437483;28;659541;-62
2021/03/03 09:27:30;;;;;;;43.73;18.83;;;11.90;69.20;;;;;;4442782;28;659531;-64
2021/03/03 09:30:20;;;;;;;44.77;17.60;;;12.10;68.60;;;;;;4431018;28;658878;-63
2021/03/03 09:33:08;;;;;;;52.53;20.83;;;12.40;67.90;;;;;;4445841;28;658683;-63
2021/03/03 09:35:55;;;;;;;43.07;15.93;;;12.80;67.20;;;;;;4433419;28;660610;-64
2021/03/03 09:38:42;;;;;;;54.00;20.20;;;12.90;66.40;;;;;;4444584;28;660220;-62
2021/03/03 09:41:29;;;;;;;53.17;22.90;;;12.90;66.40;;;;;;4440349;28;659390;-64
2021/03/03 09:44:16;;;;;;;51.50;22.07;;;13.20;67.40;;;;;;4430269;28;658394;-63
2021/03/03 09:47:04;;;;;;;58.83;24.50;;;12.90;65.90;;;;;;4427460;28;658733;-64
2021/03/03 09:49:51;;;;;;;28.43;10.97;;;13.10;64.60;;;;;;4429584;28;659996;-65
2021/03/03 09:52:39;;;;;;;60.83;24.00;;;13.30;63.10;;;;;;4419685;28;658604;-64
2021/03/03 09:55:27;;;;;;;57.07;21.57;;;13.30;63.40;;;;;;4436350;28;659359;-64
2021/03/03 09:58:14;;;;;;;62.23;25.27;;;13.30;61.20;;;;;;4427329;28;659396;-64
2021/03/03 10:01:01;;;;;;;42.47;17.77;;;13.50;61.70;;;;;;4439282;28;659897;-65
2021/03/03 10:03:50;;;;;;;45.77;21.30;;;13.90;62.60;;;;;;4420663;28;659605;-64
2021/03/03 10:06:37;;;;;;;38.70;17.33;;;13.90;59.40;;;;;;4453182;28;659667;-64
2021/03/03 10:09:23;;;;;;;46.97;18.53;;;14.10;59.30;;;;;;4437455;28;658584;-65
2021/03/03 10:12:15;;;;;;;33.70;15.57;;;14.10;58.40;;;;;;4441841;28;660243;-65
2021/03/03 10:15:05;;;;;;;35.73;15.27;;;14.50;57.90;;;;;;4395165;28;659554;-64
2021/03/03 10:17:53;;;;;;;33.27;16.10;;;15.00;55.60;;;;;;4421423;28;659712;-63
2021/03/03 10:20:41;;;;;;;30.50;13.63;;;14.90;56.00;;;;;;4446953;28;659271;-64
2021/03/03 10:23:30;;;;;;;35.67;15.73;;;15.10;53.70;;;;;;4417563;28;658990;-64
2021/03/03 10:26:17;;;;;;;33.10;14.37;;;15.30;56.30;;;;;;4425628;28;658329;-63
2021/03/03 10:29:04;;;;;;;29.13;12.33;;;15.70;54.40;;;;;;4438517;28;659863;-64
2021/03/03 10:31:51;;;;;;;30.13;13.13;;;15.80;50.70;;;;;;4443961;28;658169;-65
2021/03/03 10:34:39;;;;;;;29.67;13.20;;;16.10;52.40;;;;;;4401692;28;660398;-64
2021/03/03 10:37:27;;;;;;;27.63;14.37;;;16.30;51.60;;;;;;4435003;28;660136;-64
2021/03/03 10:40:15;;;;;;;26.80;12.67;;;16.50;51.60;;;;;;4419192;28;660479;-64
2021/03/03 10:43:08;;;;;;;21.77;10.33;;;16.60;51.00;;;;;;4442990;28;658852;-63
2021/03/03 10:46:11;;;;;;;28.30;12.47;;;16.30;48.60;;;;;;4441885;28;659161;-65
2021/03/03 10:49:12;;;;;;;27.90;12.40;;;16.60;49.00;;;;;;4420898;28;659052;-63
2021/03/03 10:51:59;;;;;;;24.73;11.37;;;16.60;48.40;;;;;;4434401;28;658608;-64
2021/03/03 10:54:46;;;;;;;19.87;8.13;;;16.90;48.80;;;;;;4433474;28;659181;-64
2021/03/03 10:57:33;;;;;;;18.87;9.73;;;17.00;48.30;;;;;;4416144;28;657428;-63
2021/03/03 11:00:21;;;;;;;29.80;12.07;;;16.60;48.10;;;;;;4418549;28;659875;-66
2021/03/03 11:03:08;;;;;;;45.63;17.37;;;16.60;48.40;;;;;;4421765;28;658455;-65
2021/03/03 11:05:56;;;;;;;28.90;11.37;;;16.90;47.60;;;;;;4446791;28;660021;-65
2021/03/03 11:08:43;;;;;;;31.83;15.83;;;17.20;48.00;;;;;;4423078;28;659397;-64
2021/03/03 11:11:31;;;;;;;35.53;15.37;;;17.10;50.10;;;;;;4441245;28;660279;-65
2021/03/03 11:14:18;;;;;;;20.27;10.60;;;17.70;49.00;;;;;;4439663;28;659336;-65
2021/03/03 11:17:06;;;;;;;25.47;11.97;;;17.70;47.50;;;;;;4459577;28;660727;-65
2021/03/03 11:19:53;;;;;;;15.30;5.27;;;17.80;46.40;;;;;;4439994;28;659245;-64
2021/03/03 11:22:40;;;;;;;26.43;12.27;;;17.80;46.10;;;;;;4458359;28;659520;-65
2021/03/03 11:25:27;;;;;;;21.43;10.10;;;17.40;46.00;;;;;;4455218;28;658581;-63
2021/03/03 11:28:15;;;;;;;11.82;6.40;;;17.30;46.50;;;;;;4462886;28;658613;-64
2021/03/03 11:31:04;;;;;;;22.73;10.30;;;17.00;47.40;;;;;;4439705;28;658884;-62
2021/03/03 11:33:51;;;;;;;24.07;9.77;;;16.70;48.60;;;;;;4455237;28;658998;-64
2021/03/03 11:36:38;;;;;;;20.73;9.30;;;16.70;47.70;;;;;;4433566;28;658407;-64
2021/03/03 11:39:24;;;;;;;21.27;8.00;;;17.50;47.90;;;;;;4465072;28;659140;-65
2021/03/03 11:42:12;;;;;;;39.73;13.67;;;17.90;46.00;;;;;;4463288;28;658136;-65
2021/03/03 11:44:59;;;;;;;26.80;9.83;;;17.90;45.10;;;;;;4433120;28;658486;-65
2021/03/03 11:47:47;;;;;;;17.57;7.37;;;17.70;45.50;;;;;;4462189;28;658770;-65
2021/03/03 11:50:34;;;;;;;15.07;6.80;;;18.10;45.50;;;;;;4439057;28;657661;-65
2021/03/03 11:53:21;;;;;;;15.30;6.37;;;17.60;42.60;;;;;;4462288;28;657117;-64
2021/03/03 11:56:08;;;;;;;16.07;6.03;;;17.40;42.30;;;;;;4441186;28;658501;-64
2021/03/03 11:58:55;;;;;;;12.83;5.57;;;17.20;44.20;;;;;;4465408;28;658988;-65
2021/03/03 12:01:43;;;;;;;18.47;8.10;;;17.80;40.80;;;;;;4457885;28;657818;-63
2021/03/03 12:04:30;;;;;;;16.83;6.90;;;17.80;41.80;;;;;;4460873;28;659360;-64
2021/03/03 12:07:17;;;;;;;18.98;8.40;;;18.10;41.40;;;;;;4434143;28;658700;-63
2021/03/03 12:10:05;;;;;;;16.53;7.47;;;18.00;42.20;;;;;;4462564;28;657572;-65
2021/03/03 12:12:52;;;;;;;11.83;5.90;;;18.40;41.90;;;;;;4438683;28;658387;-63
2021/03/03 12:15:39;;;;;;;12.10;6.63;;;18.40;39.50;;;;;;4463221;28;658264;-66
2021/03/03 12:18:27;;;;;;;15.93;6.40;;;19.10;40.00;;;;;;4450348;28;658456;-64
2021/03/03 12:21:14;;;;;;;18.37;8.80;;;19.00;39.20;;;;;;4444829;28;658998;-65
2021/03/03 12:24:01;;;;;;;11.50;5.17;;;18.90;39.20;;;;;;4455507;28;658361;-65
2021/03/03 12:26:49;;;;;;;20.27;7.60;;;19.00;37.80;;;;;;4436392;28;658853;-65
2021/03/03 12:29:36;;;;;;;18.53;7.80;;;19.10;38.20;;;;;;4457286;28;658219;-65
2021/03/03 12:32:23;;;;;;;18.10;7.88;;;19.60;38.10;;;;;;4437350;28;658574;-65
2021/03/03 12:35:12;;;;;;;16.10;7.53;;;20.40;36.80;;;;;;4464803;28;659180;-65
2021/03/03 12:37:59;;;;;;;16.47;8.57;;;21.30;35.30;;;;;;4439732;28;659161;-65
2021/03/03 12:40:46;;;;;;;21.23;9.93;;;21.30;36.00;;;;;;4462652;28;658030;-66
2021/03/03 12:43:33;;;;;;;25.07;10.50;;;21.60;35.10;;;;;;4435628;28;658492;-65
2021/03/03 12:46:20;;;;;;;22.73;10.53;;;21.60;33.50;;;;;;4448236;28;659212;-65
2021/03/03 12:49:07;;;;;;;18.47;8.83;;;22.00;33.20;;;;;;4441212;28;658612;-63
2021/03/03 12:51:55;;;;;;;24.53;11.77;;;20.60;35.30;;;;;;4458738;28;657239;-65
2021/03/03 12:54:42;;;;;;;21.37;10.03;;;21.90;34.20;;;;;;4440150;28;658839;-62
2021/03/03 12:57:29;;;;;;;25.43;11.97;;;22.60;33.20;;;;;;4460538;28;658995;-64
2021/03/03 13:00:16;;;;;;;24.90;10.77;;;22.10;34.20;;;;;;4461936;28;659626;-65
2021/03/03 13:03:04;;;;;;;23.33;11.50;;;23.10;32.00;;;;;;4431922;28;658900;-65
2021/03/03 13:05:51;;;;;;;23.27;10.97;;;22.20;32.50;;;;;;4455963;28;659958;-65
2021/03/03 13:08:39;;;;;;;21.10;10.37;;;22.40;32.40;;;;;;4443150;28;658920;-64
2021/03/03 13:11:26;;;;;;;25.20;11.40;;;23.00;32.80;;;;;;4457647;28;660001;-64
2021/03/03 13:14:13;;;;;;;26.53;11.27;;;22.90;34.50;;;;;;4439807;28;659451;-64
2021/03/03 13:17:01;;;;;;;24.17;11.37;;;23.30;31.50;;;;;;4457895;28;659829;-64
2021/03/03 13:19:48;;;;;;;24.23;11.30;;;23.80;31.70;;;;;;4433690;28;659334;-65
2021/03/03 13:22:35;;;;;;;19.40;9.23;;;25.40;30.00;;;;;;4451567;28;660700;-64
2021/03/03 13:25:23;;;;;;;21.47;9.60;;;25.70;28.50;;;;;;4434506;28;658133;-64
2021/03/03 13:28:10;;;;;;;21.77;10.03;;;27.40;28.60;;;;;;4458191;28;658902;-65
2021/03/03 13:30:57;;;;;;;20.50;9.50;;;28.60;27.40;;;;;;4434820;28;658391;-64
2021/03/03 13:33:44;;;;;;;15.37;6.70;;;28.20;26.70;;;;;;4462276;28;657644;-65
2021/03/03 13:36:31;;;;;;;15.93;6.70;;;27.50;25.50;;;;;;4453576;28;658412;-65
2021/03/03 13:39:18;;;;;;;17.20;7.97;;;26.30;26.30;;;;;;4440271;28;657975;-64
2021/03/03 13:42:07;;;;;;;17.97;9.10;;;26.10;27.10;;;;;;4459931;28;659332;-64
2021/03/03 13:44:54;;;;;;;18.80;9.27;;;26.50;27.70;;;;;;4432033;28;658770;-63
2021/03/03 13:47:41;;;;;;;16.07;7.27;;;25.30;27.80;;;;;;4457844;28;658695;-64
2021/03/03 13:50:28;;;;;;;14.53;7.63;;;25.00;28.60;;;;;;4431227;28;657680;-65
2021/03/03 13:53:15;;;;;;;16.73;8.90;;;26.00;27.90;;;;;;4457796;28;658606;-64
2021/03/03 13:56:02;;;;;;;15.25;7.65;;;26.90;28.90;;;;;;4425146;28;658177;-64
2021/03/03 13:58:50;;;;;;;16.48;7.28;;;28.10;26.40;;;;;;4461869;28;658291;-65
2021/03/03 14:01:38;;;;;;;14.48;7.25;;;28.60;25.20;;;;;;4440047;28;658052;-63
2021/03/03 14:04:25;;;;;;;15.80;7.75;;;27.90;25.30;;;;;;4460670;28;659061;-64